sensor_id;sensor_type;location;lat;lon;timestamp;P1;durP1;ratioP1;P2;durP2;ratioP2
60704;SDS011;46545;38.014;-7.874;2022-10-31T00:01:51;4.47;;;1.80;;
60704;SDS011;46545;38.014;-7.874;2022-10-31T00:03:51;7.32;;;1.50;;
60704;SDS011;46545;38.014;-7.874;2022-10-31T00:05:52;2.80;;;1.40;;
60704;SDS011;46545;38.014;-7.874;2022-10-31T00:07:53;4.85;;;1.95;;
60704;SDS011;46545;38.014;-7.874;2022-10-31T00:09:53;7.35;;;2.30;;
60704;SDS011;46545;38.014;-7.874;2022-10-31T00:11:54;6.20;;;2.50;;
60704;SDS011;46545;38.014;-7.874;2022-10-31T00:13:56;7.75;;;2.40;;
60704;SDS011;46545;38.014;-7.874;2022-10-31T00:15:57;4.47;;;2.33;;
60704;SDS011;46545;38.014;-7.874;2022-10-31T00:17:58;5.15;;;1.80;;
60704;SDS011;46545;38.014;-7.874;2022-10-31T00:19:58;4.68;;;2.40;;
60704;SDS011;46545;38.014;-7.874;2022-10-31T00:21:59;6.22;;;1.90;;
60704;SDS011;46545;38.014;-7.874;2022-10-31T00:23:59;7.07;;;2.13;;
60704;SDS011;46545;38.014;-7.874;2022-10-31T00:26:01;2.22;;;1.63;;
60704;SDS011;46545;38.014;-7.874;2022-10-31T00:28:02;4.40;;;1.90;;
60704;SDS011;46545;38.014;-7.874;2022-10-31T00:30:03;3.65;;;1.80;;
60704;SDS011;46545;38.014;-7.874;2022-10-31T00:32:03;3.85;;;1.55;;
60704;SDS011;46545;38.014;-7.874;2022-10-31T00:34:04;3.20;;;1.50;;
60704;SDS011;46545;38.014;-7.874;2022-10-31T00:36:05;5.13;;;1.60;;
60704;SDS011;46545;38.014;-7.874;2022-10-31T00:38:06;9.50;;;1.50;;
60704;SDS011;46545;38.014;-7.874;2022-10-31T00:40:07;8.23;;;1.45;;
60704;SDS011;46545;38.014;-7.874;2022-10-31T00:42:08;6.38;;;1.38;;
60704;SDS011;46545;38.014;-7.874;2022-10-31T00:44:08;5.15;;;1.27;;
60704;SDS011;46545;38.014;-7.874;2022-10-31T00:46:09;3.05;;;1.45;;
60704;SDS011;46545;38.014;-7.874;2022-10-31T00:48:10;3.70;;;1.30;;
60704;SDS011;46545;38.014;-7.874;2022-10-31T00:50:11;1.17;;;1.05;;
60704;SDS011;46545;38.014;-7.874;2022-10-31T00:52:12;5.95;;;1.63;;
60704;SDS011;46545;38.014;-7.874;2022-10-31T00:54:12;3.92;;;1.70;;
60704;SDS011;46545;38.014;-7.874;2022-10-31T00:56:13;7.72;;;2.00;;
60704;SDS011;46545;38.014;-7.874;2022-10-31T00:58:14;4.32;;;1.73;;
60704;SDS011;46545;38.014;-7.874;2022-10-31T01:00:14;3.83;;;1.95;;
60704;SDS011;46545;38.014;-7.874;2022-10-31T01:02:15;5.95;;;1.90;;
60704;SDS011;46545;38.014;-7.874;2022-10-31T01:04:16;4.38;;;1.92;;
60704;SDS011;46545;38.014;-7.874;2022-10-31T01:06:16;4.00;;;1.60;;
60704;SDS011;46545;38.014;-7.874;2022-10-31T01:08:17;4.18;;;2.00;;
60704;SDS011;46545;38.014;-7.874;2022-10-31T01:10:17;2.33;;;1.67;;
60704;SDS011;46545;38.014;-7.874;2022-10-31T01:12:18;6.65;;;3.55;;
60704;SDS011;46545;38.014;-7.874;2022-10-31T01:14:18;7.25;;;3.40;;
60704;SDS011;46545;38.014;-7.874;2022-10-31T01:16:21;6.82;;;3.47;;
60704;SDS011;46545;38.014;-7.874;2022-10-31T01:18:23;9.90;;;4.82;;
60704;SDS011;46545;38.014;-7.874;2022-10-31T01:20:24;8.73;;;4.22;;
60704;SDS011;46545;38.014;-7.874;2022-10-31T01:22:24;8.00;;;4.82;;
60704;SDS011;46545;38.014;-7.874;2022-10-31T01:24:25;9.13;;;4.38;;
60704;SDS011;46545;38.014;-7.874;2022-10-31T01:26:26;11.55;;;4.88;;
60704;SDS011;46545;38.014;-7.874;2022-10-31T01:28:27;9.15;;;5.15;;
60704;SDS011;46545;38.014;-7.874;2022-10-31T01:30:28;9.93;;;4.95;;
60704;SDS011;46545;38.014;-7.874;2022-10-31T01:32:28;7.60;;;4.55;;
60704;SDS011;46545;38.014;-7.874;2022-10-31T01:34:29;13.23;;;5.63;;
60704;SDS011;46545;38.014;-7.874;2022-10-31T01:36:31;13.70;;;4.72;;
60704;SDS011;46545;38.014;-7.874;2022-10-31T01:38:32;14.40;;;4.72;;
60704;SDS011;46545;38.014;-7.874;2022-10-31T01:40:32;13.90;;;5.10;;
60704;SDS011;46545;38.014;-7.874;2022-10-31T01:42:33;13.50;;;5.55;;
60704;SDS011;46545;38.014;-7.874;2022-10-31T01:46:38;16.52;;;5.55;;
60704;SDS011;46545;38.014;-7.874;2022-10-31T01:48:40;14.10;;;5.60;;
60704;SDS011;46545;38.014;-7.874;2022-10-31T01:50:42;12.77;;;5.47;;
60704;SDS011;46545;38.014;-7.874;2022-10-31T01:52:46;15.73;;;5.63;;
60704;SDS011;46545;38.014;-7.874;2022-10-31T01:54:56;14.60;;;5.60;;
60704;SDS011;46545;38.014;-7.874;2022-10-31T01:56:58;14.25;;;6.25;;
60704;SDS011;46545;38.014;-7.874;2022-10-31T01:58:59;14.70;;;5.72;;
60704;SDS011;46545;38.014;-7.874;2022-10-31T02:01:00;14.73;;;5.88;;
60704;SDS011;46545;38.014;-7.874;2022-10-31T02:03:01;12.52;;;6.25;;
60704;SDS011;46545;38.014;-7.874;2022-10-31T02:05:02;12.15;;;5.75;;
60704;SDS011;46545;38.014;-7.874;2022-10-31T02:07:06;14.32;;;6.20;;
60704;SDS011;46545;38.014;-7.874;2022-10-31T02:09:08;12.77;;;5.57;;
60704;SDS011;46545;38.014;-7.874;2022-10-31T02:11:09;13.45;;;5.97;;
60704;SDS011;46545;38.014;-7.874;2022-10-31T02:13:10;19.45;;;7.00;;
60704;SDS011;46545;38.014;-7.874;2022-10-31T02:15:18;21.27;;;6.97;;
60704;SDS011;46545;38.014;-7.874;2022-10-31T02:17:19;13.65;;;6.30;;
60704;SDS011;46545;38.014;-7.874;2022-10-31T02:26:01;15.07;;;6.47;;
60704;SDS011;46545;38.014;-7.874;2022-10-31T02:30:16;14.23;;;7.40;;
60704;SDS011;46545;38.014;-7.874;2022-10-31T02:32:25;16.02;;;7.40;;
60704;SDS011;46545;38.014;-7.874;2022-10-31T02:38:38;18.30;;;7.95;;
60704;SDS011;46545;38.014;-7.874;2022-10-31T02:40:48;18.25;;;7.65;;
60704;SDS011;46545;38.014;-7.874;2022-10-31T02:43:27;15.73;;;7.00;;
60704;SDS011;46545;38.014;-7.874;2022-10-31T02:45:31;10.30;;;7.13;;
60704;SDS011;46545;38.014;-7.874;2022-10-31T02:47:37;17.33;;;8.60;;
60704;SDS011;46545;38.014;-7.874;2022-10-31T02:51:54;15.50;;;7.40;;
60704;SDS011;46545;38.014;-7.874;2022-10-31T02:53:55;17.20;;;7.35;;
60704;SDS011;46545;38.014;-7.874;2022-10-31T02:55:59;13.90;;;7.70;;
60704;SDS011;46545;38.014;-7.874;2022-10-31T03:00:07;19.55;;;7.70;;
60704;SDS011;46545;38.014;-7.874;2022-10-31T03:02:43;14.98;;;7.30;;
60704;SDS011;46545;38.014;-7.874;2022-10-31T03:11:03;14.85;;;8.73;;
60704;SDS011;46545;38.014;-7.874;2022-10-31T03:13:10;19.90;;;9.13;;
60704;SDS011;46545;38.014;-7.874;2022-10-31T03:15:14;15.90;;;7.90;;
60704;SDS011;46545;38.014;-7.874;2022-10-31T03:17:18;21.27;;;8.70;;
60704;SDS011;46545;38.014;-7.874;2022-10-31T03:21:30;19.52;;;8.13;;
60704;SDS011;46545;38.014;-7.874;2022-10-31T03:23:33;19.65;;;9.38;;
60704;SDS011;46545;38.014;-7.874;2022-10-31T03:25:35;18.35;;;7.78;;
60704;SDS011;46545;38.014;-7.874;2022-10-31T03:27:36;19.80;;;9.50;;
60704;SDS011;46545;38.014;-7.874;2022-10-31T03:29:38;14.45;;;8.93;;
60704;SDS011;46545;38.014;-7.874;2022-10-31T03:31:43;18.80;;;8.43;;
60704;SDS011;46545;38.014;-7.874;2022-10-31T03:33:47;20.77;;;9.65;;
60704;SDS011;46545;38.014;-7.874;2022-10-31T03:35:50;17.27;;;9.48;;
60704;SDS011;46545;38.014;-7.874;2022-10-31T03:37:53;23.73;;;9.63;;
60704;SDS011;46545;38.014;-7.874;2022-10-31T03:39:55;16.25;;;8.13;;
60704;SDS011;46545;38.014;-7.874;2022-10-31T03:42:05;14.63;;;8.75;;
60704;SDS011;46545;38.014;-7.874;2022-10-31T03:44:11;21.05;;;10.23;;
60704;SDS011;46545;38.014;-7.874;2022-10-31T03:46:13;22.58;;;9.75;;
60704;SDS011;46545;38.014;-7.874;2022-10-31T03:48:14;25.40;;;9.50;;
60704;SDS011;46545;38.014;-7.874;2022-10-31T03:50:15;23.48;;;8.90;;
60704;SDS011;46545;38.014;-7.874;2022-10-31T03:52:24;24.52;;;11.85;;
60704;SDS011;46545;38.014;-7.874;2022-10-31T03:54:32;17.23;;;9.13;;
60704;SDS011;46545;38.014;-7.874;2022-10-31T03:56:36;19.23;;;9.23;;
60704;SDS011;46545;38.014;-7.874;2022-10-31T03:59:00;17.27;;;9.27;;
60704;SDS011;46545;38.014;-7.874;2022-10-31T04:00:59;21.08;;;9.25;;
60704;SDS011;46545;38.014;-7.874;2022-10-31T04:03:03;23.42;;;9.50;;
60704;SDS011;46545;38.014;-7.874;2022-10-31T04:05:08;18.95;;;10.65;;
60704;SDS011;46545;38.014;-7.874;2022-10-31T04:07:10;20.20;;;9.93;;
60704;SDS011;46545;38.014;-7.874;2022-10-31T04:09:12;24.70;;;10.45;;
60704;SDS011;46545;38.014;-7.874;2022-10-31T04:11:14;21.10;;;10.57;;
60704;SDS011;46545;38.014;-7.874;2022-10-31T04:13:22;21.40;;;10.75;;
60704;SDS011;46545;38.014;-7.874;2022-10-31T04:15:31;22.73;;;10.25;;
60704;SDS011;46545;38.014;-7.874;2022-10-31T04:17:34;21.65;;;10.30;;
60704;SDS011;46545;38.014;-7.874;2022-10-31T04:19:36;27.02;;;10.50;;
60704;SDS011;46545;38.014;-7.874;2022-10-31T04:21:37;19.42;;;11.07;;
60704;SDS011;46545;38.014;-7.874;2022-10-31T04:23:37;31.95;;;12.05;;
60704;SDS011;46545;38.014;-7.874;2022-10-31T04:25:48;22.27;;;12.85;;
60704;SDS011;46545;38.014;-7.874;2022-10-31T04:27:51;21.52;;;11.82;;
60704;SDS011;46545;38.014;-7.874;2022-10-31T04:29:52;24.88;;;10.93;;
60704;SDS011;46545;38.014;-7.874;2022-10-31T04:31:52;23.95;;;11.50;;
60704;SDS011;46545;38.014;-7.874;2022-10-31T04:33:53;21.95;;;11.10;;
60704;SDS011;46545;38.014;-7.874;2022-10-31T04:35:53;21.85;;;11.10;;
60704;SDS011;46545;38.014;-7.874;2022-10-31T04:37:54;26.13;;;10.70;;
60704;SDS011;46545;38.014;-7.874;2022-10-31T04:39:54;28.08;;;11.20;;
60704;SDS011;46545;38.014;-7.874;2022-10-31T04:42:13;20.23;;;10.77;;
60704;SDS011;46545;38.014;-7.874;2022-10-31T04:44:15;24.42;;;11.25;;
60704;SDS011;46545;38.014;-7.874;2022-10-31T04:46:16;25.02;;;12.60;;
60704;SDS011;46545;38.014;-7.874;2022-10-31T04:48:16;25.27;;;10.85;;
60704;SDS011;46545;38.014;-7.874;2022-10-31T04:50:18;21.08;;;12.18;;
60704;SDS011;46545;38.014;-7.874;2022-10-31T04:52:19;21.58;;;11.52;;
60704;SDS011;46545;38.014;-7.874;2022-10-31T04:54:19;15.48;;;10.13;;
60704;SDS011;46545;38.014;-7.874;2022-10-31T04:56:29;29.05;;;11.25;;
60704;SDS011;46545;38.014;-7.874;2022-10-31T04:58:32;20.58;;;11.50;;
60704;SDS011;46545;38.014;-7.874;2022-10-31T05:00:33;29.05;;;11.02;;
60704;SDS011;46545;38.014;-7.874;2022-10-31T05:02:34;27.10;;;11.57;;
60704;SDS011;46545;38.014;-7.874;2022-10-31T05:04:35;24.50;;;12.15;;
60704;SDS011;46545;38.014;-7.874;2022-10-31T05:06:36;29.42;;;11.90;;
60704;SDS011;46545;38.014;-7.874;2022-10-31T05:08:37;34.22;;;11.93;;
60704;SDS011;46545;38.014;-7.874;2022-10-31T05:10:41;19.48;;;11.27;;
60704;SDS011;46545;38.014;-7.874;2022-10-31T05:12:45;27.83;;;11.70;;
60704;SDS011;46545;38.014;-7.874;2022-10-31T05:15:07;30.65;;;11.75;;
60704;SDS011;46545;38.014;-7.874;2022-10-31T05:17:07;23.98;;;11.07;;
60704;SDS011;46545;38.014;-7.874;2022-10-31T05:19:34;27.50;;;11.02;;
60704;SDS011;46545;38.014;-7.874;2022-10-31T05:21:57;22.48;;;11.75;;
60704;SDS011;46545;38.014;-7.874;2022-10-31T05:23:57;29.20;;;12.50;;
60704;SDS011;46545;38.014;-7.874;2022-10-31T05:25:58;34.28;;;11.73;;
60704;SDS011;46545;38.014;-7.874;2022-10-31T05:27:59;28.15;;;12.13;;
60704;SDS011;46545;38.014;-7.874;2022-10-31T05:30:00;21.60;;;11.77;;
60704;SDS011;46545;38.014;-7.874;2022-10-31T05:32:00;32.45;;;12.52;;
60704;SDS011;46545;38.014;-7.874;2022-10-31T05:34:19;30.77;;;12.25;;
60704;SDS011;46545;38.014;-7.874;2022-10-31T05:36:38;25.63;;;13.38;;
60704;SDS011;46545;38.014;-7.874;2022-10-31T05:38:55;36.28;;;13.45;;
60704;SDS011;46545;38.014;-7.874;2022-10-31T05:41:03;25.83;;;11.93;;
60704;SDS011;46545;38.014;-7.874;2022-10-31T05:43:06;28.83;;;13.40;;
60704;SDS011;46545;38.014;-7.874;2022-10-31T05:45:07;25.15;;;11.95;;
60704;SDS011;46545;38.014;-7.874;2022-10-31T05:47:19;36.95;;;13.57;;
60704;SDS011;46545;38.014;-7.874;2022-10-31T05:49:52;30.27;;;12.45;;
60704;SDS011;46545;38.014;-7.874;2022-10-31T05:52:24;31.85;;;12.90;;
60704;SDS011;46545;38.014;-7.874;2022-10-31T05:54:32;32.83;;;12.68;;
60704;SDS011;46545;38.014;-7.874;2022-10-31T05:56:33;26.27;;;12.57;;
60704;SDS011;46545;38.014;-7.874;2022-10-31T05:58:34;34.65;;;15.07;;
60704;SDS011;46545;38.014;-7.874;2022-10-31T06:00:38;34.47;;;14.43;;
60704;SDS011;46545;38.014;-7.874;2022-10-31T06:02:43;28.60;;;13.43;;
60704;SDS011;46545;38.014;-7.874;2022-10-31T06:05:08;29.50;;;14.98;;
60704;SDS011;46545;38.014;-7.874;2022-10-31T06:07:08;31.75;;;13.52;;
60704;SDS011;46545;38.014;-7.874;2022-10-31T06:09:09;32.20;;;14.35;;
60704;SDS011;46545;38.014;-7.874;2022-10-31T06:11:11;23.00;;;13.70;;
60704;SDS011;46545;38.014;-7.874;2022-10-31T06:13:30;32.28;;;13.98;;
60704;SDS011;46545;38.014;-7.874;2022-10-31T06:15:35;36.15;;;14.05;;
60704;SDS011;46545;38.014;-7.874;2022-10-31T06:17:36;38.08;;;14.75;;
60704;SDS011;46545;38.014;-7.874;2022-10-31T06:19:59;25.73;;;14.03;;
60704;SDS011;46545;38.014;-7.874;2022-10-31T06:22:01;25.55;;;15.10;;
60704;SDS011;46545;38.014;-7.874;2022-10-31T06:24:02;39.28;;;13.60;;
60704;SDS011;46545;38.014;-7.874;2022-10-31T06:26:33;38.45;;;15.60;;
60704;SDS011;46545;38.014;-7.874;2022-10-31T06:28:33;27.83;;;15.02;;
60704;SDS011;46545;38.014;-7.874;2022-10-31T06:30:45;30.17;;;14.88;;
60704;SDS011;46545;38.014;-7.874;2022-10-31T06:32:46;30.02;;;14.35;;
60704;SDS011;46545;38.014;-7.874;2022-10-31T06:34:46;30.67;;;13.82;;
60704;SDS011;46545;38.014;-7.874;2022-10-31T06:36:50;29.33;;;14.88;;
60704;SDS011;46545;38.014;-7.874;2022-10-31T06:38:53;28.95;;;14.68;;
60704;SDS011;46545;38.014;-7.874;2022-10-31T06:40:57;31.05;;;13.27;;
60704;SDS011;46545;38.014;-7.874;2022-10-31T06:43:01;29.42;;;13.90;;
60704;SDS011;46545;38.014;-7.874;2022-10-31T06:45:03;25.63;;;14.23;;
60704;SDS011;46545;38.014;-7.874;2022-10-31T06:47:32;25.42;;;14.15;;
60704;SDS011;46545;38.014;-7.874;2022-10-31T06:49:38;28.27;;;14.65;;
60704;SDS011;46545;38.014;-7.874;2022-10-31T06:51:47;31.48;;;15.60;;
60704;SDS011;46545;38.014;-7.874;2022-10-31T06:53:47;37.10;;;14.27;;
60704;SDS011;46545;38.014;-7.874;2022-10-31T06:55:50;30.50;;;14.07;;
60704;SDS011;46545;38.014;-7.874;2022-10-31T06:59:55;37.40;;;14.68;;
60704;SDS011;46545;38.014;-7.874;2022-10-31T07:02:24;36.92;;;14.48;;
60704;SDS011;46545;38.014;-7.874;2022-10-31T07:04:25;23.90;;;14.52;;
60704;SDS011;46545;38.014;-7.874;2022-10-31T07:06:26;26.30;;;14.02;;
60704;SDS011;46545;38.014;-7.874;2022-10-31T07:08:27;35.67;;;14.68;;
60704;SDS011;46545;38.014;-7.874;2022-10-31T07:10:29;30.80;;;14.52;;
60704;SDS011;46545;38.014;-7.874;2022-10-31T07:12:34;35.58;;;14.82;;
60704;SDS011;46545;38.014;-7.874;2022-10-31T07:14:35;30.50;;;14.50;;
60704;SDS011;46545;38.014;-7.874;2022-10-31T07:16:36;29.63;;;14.25;;
60704;SDS011;46545;38.014;-7.874;2022-10-31T07:18:38;28.13;;;14.38;;
60704;SDS011;46545;38.014;-7.874;2022-10-31T07:20:39;31.63;;;13.95;;
60704;SDS011;46545;38.014;-7.874;2022-10-31T07:22:41;35.83;;;13.95;;
60704;SDS011;46545;38.014;-7.874;2022-10-31T07:24:42;35.70;;;13.70;;
60704;SDS011;46545;38.014;-7.874;2022-10-31T07:27:02;29.15;;;13.07;;
60704;SDS011;46545;38.014;-7.874;2022-10-31T07:29:02;31.15;;;14.30;;
60704;SDS011;46545;38.014;-7.874;2022-10-31T07:31:03;37.78;;;13.50;;
60704;SDS011;46545;38.014;-7.874;2022-10-31T07:33:04;28.05;;;14.10;;
60704;SDS011;46545;38.014;-7.874;2022-10-31T07:35:37;33.67;;;12.90;;
60704;SDS011;46545;38.014;-7.874;2022-10-31T07:37:38;28.80;;;13.60;;
60704;SDS011;46545;38.014;-7.874;2022-10-31T07:39:39;29.15;;;14.05;;
60704;SDS011;46545;38.014;-7.874;2022-10-31T07:41:41;31.58;;;13.20;;
60704;SDS011;46545;38.014;-7.874;2022-10-31T07:43:43;35.53;;;15.65;;
60704;SDS011;46545;38.014;-7.874;2022-10-31T07:46:22;27.15;;;14.55;;
60704;SDS011;46545;38.014;-7.874;2022-10-31T07:48:41;30.30;;;13.55;;
60704;SDS011;46545;38.014;-7.874;2022-10-31T07:51:00;31.48;;;14.07;;
60704;SDS011;46545;38.014;-7.874;2022-10-31T07:53:24;31.65;;;14.07;;
60704;SDS011;46545;38.014;-7.874;2022-10-31T07:55:32;26.75;;;14.00;;
60704;SDS011;46545;38.014;-7.874;2022-10-31T07:57:33;27.80;;;14.60;;
60704;SDS011;46545;38.014;-7.874;2022-10-31T07:59:33;28.75;;;14.30;;
60704;SDS011;46545;38.014;-7.874;2022-10-31T08:01:34;29.95;;;15.00;;
60704;SDS011;46545;38.014;-7.874;2022-10-31T08:03:58;32.53;;;14.80;;
60704;SDS011;46545;38.014;-7.874;2022-10-31T08:06:16;30.05;;;14.02;;
60704;SDS011;46545;38.014;-7.874;2022-10-31T08:08:49;31.23;;;15.18;;
60704;SDS011;46545;38.014;-7.874;2022-10-31T08:10:51;31.58;;;14.57;;
60704;SDS011;46545;38.014;-7.874;2022-10-31T08:12:58;31.05;;;15.90;;
60704;SDS011;46545;38.014;-7.874;2022-10-31T08:14:59;28.02;;;14.40;;
60704;SDS011;46545;38.014;-7.874;2022-10-31T08:17:00;24.75;;;14.00;;
60704;SDS011;46545;38.014;-7.874;2022-10-31T08:19:08;35.92;;;15.00;;
60704;SDS011;46545;38.014;-7.874;2022-10-31T08:23:12;45.35;;;15.38;;
60704;SDS011;46545;38.014;-7.874;2022-10-31T08:25:15;36.22;;;14.50;;
60704;SDS011;46545;38.014;-7.874;2022-10-31T08:27:16;32.45;;;14.60;;
60704;SDS011;46545;38.014;-7.874;2022-10-31T08:29:17;32.42;;;14.20;;
60704;SDS011;46545;38.014;-7.874;2022-10-31T08:31:21;33.92;;;14.93;;
60704;SDS011;46545;38.014;-7.874;2022-10-31T08:33:21;35.38;;;16.30;;
60704;SDS011;46545;38.014;-7.874;2022-10-31T08:35:42;30.15;;;15.77;;
60704;SDS011;46545;38.014;-7.874;2022-10-31T08:38:03;31.55;;;14.45;;
60704;SDS011;46545;38.014;-7.874;2022-10-31T08:40:04;32.38;;;15.73;;
60704;SDS011;46545;38.014;-7.874;2022-10-31T08:42:08;30.90;;;15.38;;
60704;SDS011;46545;38.014;-7.874;2022-10-31T08:44:08;34.70;;;16.73;;
60704;SDS011;46545;38.014;-7.874;2022-10-31T08:46:10;33.35;;;15.50;;
60704;SDS011;46545;38.014;-7.874;2022-10-31T08:48:14;36.67;;;15.98;;
60704;SDS011;46545;38.014;-7.874;2022-10-31T08:50:15;32.22;;;15.88;;
60704;SDS011;46545;38.014;-7.874;2022-10-31T08:52:22;36.47;;;16.50;;
60704;SDS011;46545;38.014;-7.874;2022-10-31T08:54:22;32.50;;;16.88;;
60704;SDS011;46545;38.014;-7.874;2022-10-31T08:56:23;37.58;;;16.20;;
60704;SDS011;46545;38.014;-7.874;2022-10-31T08:58:24;35.47;;;15.45;;
60704;SDS011;46545;38.014;-7.874;2022-10-31T09:00:28;29.60;;;15.02;;
60704;SDS011;46545;38.014;-7.874;2022-10-31T09:02:36;31.48;;;16.27;;
60704;SDS011;46545;38.014;-7.874;2022-10-31T09:04:38;32.42;;;15.73;;
60704;SDS011;46545;38.014;-7.874;2022-10-31T09:06:39;34.30;;;15.63;;
60704;SDS011;46545;38.014;-7.874;2022-10-31T09:08:39;25.35;;;14.95;;
60704;SDS011;46545;38.014;-7.874;2022-10-31T09:10:40;26.08;;;15.88;;
60704;SDS011;46545;38.014;-7.874;2022-10-31T09:12:41;29.77;;;16.10;;
60704;SDS011;46545;38.014;-7.874;2022-10-31T09:15:00;36.55;;;15.35;;
60704;SDS011;46545;38.014;-7.874;2022-10-31T09:17:20;28.35;;;15.57;;
60704;SDS011;46545;38.014;-7.874;2022-10-31T09:19:40;38.00;;;16.33;;
60704;SDS011;46545;38.014;-7.874;2022-10-31T09:21:41;30.20;;;15.02;;
60704;SDS011;46545;38.014;-7.874;2022-10-31T09:23:42;26.02;;;16.35;;
60704;SDS011;46545;38.014;-7.874;2022-10-31T09:25:45;26.98;;;15.15;;
60704;SDS011;46545;38.014;-7.874;2022-10-31T09:28:07;29.15;;;14.98;;
60704;SDS011;46545;38.014;-7.874;2022-10-31T09:30:09;26.75;;;14.60;;
60704;SDS011;46545;38.014;-7.874;2022-10-31T09:32:10;23.75;;;14.63;;
60704;SDS011;46545;38.014;-7.874;2022-10-31T09:34:19;26.77;;;14.95;;
60704;SDS011;46545;38.014;-7.874;2022-10-31T09:36:26;26.20;;;14.32;;
60704;SDS011;46545;38.014;-7.874;2022-10-31T09:38:26;35.35;;;15.50;;
60704;SDS011;46545;38.014;-7.874;2022-10-31T09:50:14;19.35;;;13.02;;
60704;SDS011;46545;38.014;-7.874;2022-10-31T09:52:29;33.70;;;13.93;;
60704;SDS011;46545;38.014;-7.874;2022-10-31T09:56:33;24.80;;;15.57;;
60704;SDS011;46545;38.014;-7.874;2022-10-31T09:58:39;24.35;;;14.35;;
60704;SDS011;46545;38.014;-7.874;2022-10-31T10:00:40;28.75;;;14.55;;
60704;SDS011;46545;38.014;-7.874;2022-10-31T10:05:02;29.88;;;15.32;;
60704;SDS011;46545;38.014;-7.874;2022-10-31T10:07:08;28.33;;;15.27;;
60704;SDS011;46545;38.014;-7.874;2022-10-31T10:09:17;32.15;;;14.52;;
60704;SDS011;46545;38.014;-7.874;2022-10-31T10:14:21;36.85;;;16.20;;
60704;SDS011;46545;38.014;-7.874;2022-10-31T10:16:32;22.75;;;13.45;;
60704;SDS011;46545;38.014;-7.874;2022-10-31T10:21:14;25.20;;;14.23;;
60704;SDS011;46545;38.014;-7.874;2022-10-31T10:23:29;28.52;;;14.25;;
60704;SDS011;46545;38.014;-7.874;2022-10-31T10:25:39;28.25;;;14.20;;
60704;SDS011;46545;38.014;-7.874;2022-10-31T10:27:48;36.63;;;16.55;;
60704;SDS011;46545;38.014;-7.874;2022-10-31T10:32:00;31.38;;;14.50;;
60704;SDS011;46545;38.014;-7.874;2022-10-31T10:36:45;24.60;;;13.43;;
60704;SDS011;46545;38.014;-7.874;2022-10-31T10:38:49;31.00;;;14.48;;
60704;SDS011;46545;38.014;-7.874;2022-10-31T10:40:52;24.95;;;14.02;;
60704;SDS011;46545;38.014;-7.874;2022-10-31T10:43:00;31.65;;;14.68;;
60704;SDS011;46545;38.014;-7.874;2022-10-31T10:45:20;31.65;;;14.45;;
60704;SDS011;46545;38.014;-7.874;2022-10-31T10:47:43;23.02;;;14.48;;
60704;SDS011;46545;38.014;-7.874;2022-10-31T10:51:45;27.20;;;14.90;;
60704;SDS011;46545;38.014;-7.874;2022-10-31T10:53:53;27.48;;;15.00;;
60704;SDS011;46545;38.014;-7.874;2022-10-31T10:58:06;33.00;;;14.60;;
60704;SDS011;46545;38.014;-7.874;2022-10-31T11:00:18;31.58;;;14.48;;
60704;SDS011;46545;38.014;-7.874;2022-10-31T11:02:23;27.23;;;15.13;;
60704;SDS011;46545;38.014;-7.874;2022-10-31T11:04:34;30.80;;;14.85;;
60704;SDS011;46545;38.014;-7.874;2022-10-31T11:06:34;29.00;;;15.15;;
60704;SDS011;46545;38.014;-7.874;2022-10-31T11:08:35;29.05;;;14.13;;
60704;SDS011;46545;38.014;-7.874;2022-10-31T11:10:36;38.78;;;14.75;;
60704;SDS011;46545;38.014;-7.874;2022-10-31T11:12:36;32.17;;;15.50;;
60704;SDS011;46545;38.014;-7.874;2022-10-31T11:14:47;29.65;;;14.52;;
60704;SDS011;46545;38.014;-7.874;2022-10-31T11:16:52;27.13;;;14.10;;
60704;SDS011;46545;38.014;-7.874;2022-10-31T11:18:53;22.63;;;13.63;;
60704;SDS011;46545;38.014;-7.874;2022-10-31T11:21:04;28.58;;;13.55;;
60704;SDS011;46545;38.014;-7.874;2022-10-31T11:27:23;22.08;;;12.10;;
60704;SDS011;46545;38.014;-7.874;2022-10-31T11:29:24;23.40;;;12.18;;
60704;SDS011;46545;38.014;-7.874;2022-10-31T11:31:25;31.63;;;13.73;;
60704;SDS011;46545;38.014;-7.874;2022-10-31T11:33:36;27.33;;;12.65;;
60704;SDS011;46545;38.014;-7.874;2022-10-31T11:35:38;29.08;;;13.73;;
60704;SDS011;46545;38.014;-7.874;2022-10-31T11:37:41;22.73;;;11.93;;
60704;SDS011;46545;38.014;-7.874;2022-10-31T11:39:43;22.30;;;11.63;;
60704;SDS011;46545;38.014;-7.874;2022-10-31T11:41:44;25.65;;;11.25;;
60704;SDS011;46545;38.014;-7.874;2022-10-31T11:43:56;28.45;;;11.90;;
60704;SDS011;46545;38.014;-7.874;2022-10-31T11:45:56;24.40;;;11.52;;
60704;SDS011;46545;38.014;-7.874;2022-10-31T11:47:57;23.35;;;10.35;;
60704;SDS011;46545;38.014;-7.874;2022-10-31T11:50:02;27.30;;;11.32;;
60704;SDS011;46545;38.014;-7.874;2022-10-31T11:52:07;19.05;;;9.75;;
60704;SDS011;46545;38.014;-7.874;2022-10-31T11:54:21;20.88;;;10.60;;
60704;SDS011;46545;38.014;-7.874;2022-10-31T11:56:23;19.73;;;9.23;;
60704;SDS011;46545;38.014;-7.874;2022-10-31T11:58:25;22.08;;;9.88;;
60704;SDS011;46545;38.014;-7.874;2022-10-31T12:00:30;24.15;;;8.85;;
60704;SDS011;46545;38.014;-7.874;2022-10-31T12:02:31;19.02;;;9.65;;
60704;SDS011;46545;38.014;-7.874;2022-10-31T12:06:33;20.00;;;9.75;;
60704;SDS011;46545;38.014;-7.874;2022-10-31T12:08:34;15.43;;;10.27;;
60704;SDS011;46545;38.014;-7.874;2022-10-31T12:10:38;22.67;;;11.45;;
60704;SDS011;46545;38.014;-7.874;2022-10-31T12:12:50;24.27;;;11.60;;
60704;SDS011;46545;38.014;-7.874;2022-10-31T12:14:55;25.85;;;10.75;;
60704;SDS011;46545;38.014;-7.874;2022-10-31T12:21:19;20.27;;;11.23;;
60704;SDS011;46545;38.014;-7.874;2022-10-31T12:26:03;23.73;;;11.00;;
60704;SDS011;46545;38.014;-7.874;2022-10-31T12:30:15;22.48;;;9.75;;
60704;SDS011;46545;38.014;-7.874;2022-10-31T12:37:03;15.93;;;8.95;;
60704;SDS011;46545;38.014;-7.874;2022-10-31T12:41:28;21.33;;;9.63;;
60704;SDS011;46545;38.014;-7.874;2022-10-31T12:52:12;17.88;;;9.73;;
60704;SDS011;46545;38.014;-7.874;2022-10-31T12:57:06;17.02;;;9.93;;
60704;SDS011;46545;38.014;-7.874;2022-10-31T12:59:01;16.15;;;9.70;;
60704;SDS011;46545;38.014;-7.874;2022-10-31T13:03:26;15.82;;;9.23;;
60704;SDS011;46545;38.014;-7.874;2022-10-31T13:05:36;14.75;;;9.10;;
60704;SDS011;46545;38.014;-7.874;2022-10-31T13:07:40;21.38;;;9.73;;
60704;SDS011;46545;38.014;-7.874;2022-10-31T13:10:04;17.48;;;8.60;;
60704;SDS011;46545;38.014;-7.874;2022-10-31T13:12:06;23.10;;;9.23;;
60704;SDS011;46545;38.014;-7.874;2022-10-31T13:14:09;22.02;;;8.77;;
60704;SDS011;46545;38.014;-7.874;2022-10-31T13:16:13;20.30;;;8.35;;
60704;SDS011;46545;38.014;-7.874;2022-10-31T13:18:39;12.77;;;8.30;;
60704;SDS011;46545;38.014;-7.874;2022-10-31T13:20:40;19.75;;;9.25;;
60704;SDS011;46545;38.014;-7.874;2022-10-31T13:22:43;21.58;;;9.95;;
60704;SDS011;46545;38.014;-7.874;2022-10-31T13:26:53;18.13;;;8.55;;
60704;SDS011;46545;38.014;-7.874;2022-10-31T13:28:57;15.57;;;8.52;;
60704;SDS011;46545;38.014;-7.874;2022-10-31T13:31:00;15.27;;;8.60;;
60704;SDS011;46545;38.014;-7.874;2022-10-31T13:33:47;21.45;;;9.75;;
60704;SDS011;46545;38.014;-7.874;2022-10-31T13:39:32;16.65;;;8.23;;
60704;SDS011;46545;38.014;-7.874;2022-10-31T13:45:52;19.00;;;9.90;;
60704;SDS011;46545;38.014;-7.874;2022-10-31T13:47:58;13.15;;;8.38;;
60704;SDS011;46545;38.014;-7.874;2022-10-31T13:52:24;17.92;;;7.35;;
60704;SDS011;46545;38.014;-7.874;2022-10-31T13:54:32;15.45;;;7.22;;
60704;SDS011;46545;38.014;-7.874;2022-10-31T13:56:33;16.83;;;8.68;;
60704;SDS011;46545;38.014;-7.874;2022-10-31T13:58:34;11.32;;;6.82;;